Time;durP1;ratioP1;P1;durP2;ratioP2;P2;SDS_P1;SDS_P2;PMS_P1;PMS_P2;Temp;Humidity;BMP_temperature;BMP_pressure;BME280_temperature;BME280_humidity;BME280_pressure;Samples;Min_cycle;Max_cycle;Signal;HPM_P1;HPM_P2
2023/11/28 00:00:39;;;;;;;0.80;0.80;;;15.40;64.60;;;;;;5053943;28;20266;-63
2023/11/28 00:03:04;;;;;;;0.75;0.75;;;15.40;64.50;;;;;;5053450;28;20266;-65
2023/11/28 00:05:30;;;;;;;0.85;0.85;;;15.40;64.50;;;;;;5054097;28;20168;-64
2023/11/28 00:07:56;;;;;;;1.40;0.90;;;15.30;64.40;;;;;;5054086;28;20226;-66
2023/11/28 00:10:21;;;;;;;0.80;0.80;;;15.30;64.50;;;;;;5053080;28;20179;-66
2023/11/28 00:12:47;;;;;;;0.68;0.68;;;15.30;64.50;;;;;;5054119;28;20195;-65
2023/11/28 00:15:12;;;;;;;1.08;1.00;;;15.30;64.60;;;;;;5053734;28;20171;-66
2023/11/28 00:17:38;;;;;;;0.95;0.95;;;15.30;64.40;;;;;;5052625;28;20565;-65
2023/11/28 00:20:05;;;;;;;0.73;0.73;;;15.30;64.30;;;;;;5053891;28;20185;-66
2023/11/28 00:22:31;;;;;;;0.80;0.80;;;15.30;64.60;;;;;;5053680;28;20179;-65
2023/11/28 00:24:56;;;;;;;0.95;0.90;;;15.20;64.30;;;;;;5053251;28;20168;-65
2023/11/28 00:27:22;;;;;;;0.80;0.80;;;15.20;64.30;;;;;;5053566;28;20201;-65
2023/11/28 00:29:48;;;;;;;1.33;0.80;;;15.20;64.60;;;;;;5053234;28;20171;-64
2023/11/28 00:32:14;;;;;;;0.73;0.73;;;15.20;64.50;;;;;;5052660;28;20185;-66
2023/11/28 00:34:39;;;;;;;0.80;0.80;;;15.20;64.50;;;;;;5053912;28;20271;-65
2023/11/28 00:37:05;;;;;;;0.95;0.82;;;15.20;64.40;;;;;;5053648;28;20231;-66
2023/11/28 00:39:30;;;;;;;0.82;0.82;;;15.20;64.40;;;;;;5052738;28;20202;-65
2023/11/28 00:41:56;;;;;;;0.80;0.75;;;15.20;64.40;;;;;;5053412;28;20712;-65
2023/11/28 00:44:22;;;;;;;0.70;0.70;;;15.10;64.50;;;;;;5053068;28;20259;-65
2023/11/28 00:46:47;;;;;;;0.90;0.90;;;15.10;64.30;;;;;;5052624;28;20211;-65
2023/11/28 00:49:13;;;;;;;0.70;0.70;;;15.10;64.20;;;;;;5053554;28;20258;-65
2023/11/28 00:51:43;;;;;;;0.82;0.82;;;15.10;64.60;;;;;;5053232;28;20322;-65
2023/11/28 00:54:08;;;;;;;0.80;0.80;;;15.00;64.30;;;;;;5052736;28;20262;-66
2023/11/28 00:56:34;;;;;;;0.80;0.80;;;15.00;64.40;;;;;;5052969;28;20278;-65
2023/11/28 00:59:00;;;;;;;0.80;0.80;;;15.00;64.20;;;;;;5053264;28;20258;-66
2023/11/28 01:01:25;;;;;;;0.85;0.85;;;15.00;64.40;;;;;;5052099;28;20638;-63
2023/11/28 01:03:51;;;;;;;0.60;0.60;;;15.00;64.30;;;;;;5053404;28;20175;-65
2023/11/28 01:06:16;;;;;;;1.10;1.00;;;15.00;64.30;;;;;;5052977;28;20175;-65
2023/11/28 01:08:42;;;;;;;0.63;0.63;;;15.00;64.50;;;;;;5052333;28;20167;-66
2023/11/28 01:11:07;;;;;;;1.15;0.90;;;15.00;64.60;;;;;;5053061;28;20194;-67
2023/11/28 01:13:33;;;;;;;0.70;0.70;;;15.00;64.60;;;;;;5051988;28;20557;-65
2023/11/28 01:15:58;;;;;;;0.80;0.80;;;15.00;64.70;;;;;;5052740;28;20193;-66
2023/11/28 01:18:33;;;;;;;0.73;0.73;;;14.90;64.90;;;;;;5052662;28;20215;-65
2023/11/28 01:20:58;;;;;;;0.80;0.80;;;14.90;64.60;;;;;;5052267;28;20181;-66
2023/11/28 01:23:24;;;;;;;0.90;0.90;;;14.90;64.70;;;;;;5052488;28;20175;-65
2023/11/28 01:25:49;;;;;;;0.70;0.70;;;14.90;64.50;;;;;;5052565;28;20171;-65
2023/11/28 01:28:16;;;;;;;0.90;0.90;;;14.90;64.50;;;;;;5050729;28;20230;-66
2023/11/28 01:30:41;;;;;;;0.70;0.70;;;14.90;64.70;;;;;;5052744;28;20179;-64
2023/11/28 01:33:07;;;;;;;0.80;0.80;;;14.90;64.50;;;;;;5052364;28;20676;-65
2023/11/28 01:35:32;;;;;;;0.80;0.80;;;14.90;64.60;;;;;;5051560;28;20195;-66
2023/11/28 01:37:58;;;;;;;1.10;1.10;;;14.90;64.40;;;;;;5052490;28;20207;-65
2023/11/28 01:40:23;;;;;;;0.52;0.52;;;14.90;64.60;;;;;;5051258;28;20178;-65
2023/11/28 01:42:49;;;;;;;0.70;0.70;;;14.90;64.50;;;;;;5051668;28;20179;-64
2023/11/28 01:45:14;;;;;;;0.70;0.70;;;14.80;64.20;;;;;;5052016;28;20182;-67
2023/11/28 01:47:40;;;;;;;0.70;0.70;;;14.90;64.40;;;;;;5052471;28;20182;-65
2023/11/28 01:50:06;;;;;;;0.80;0.80;;;14.80;64.30;;;;;;5051513;28;20229;-66
2023/11/28 01:52:32;;;;;;;1.15;0.80;;;14.80;64.40;;;;;;5050668;28;20186;-65
2023/11/28 01:55:01;;;;;;;0.70;0.70;;;14.80;64.50;;;;;;5051620;28;20187;-64
2023/11/28 01:57:29;;;;;;;0.80;0.80;;;14.80;64.40;;;;;;5051093;28;20673;-65
2023/11/28 01:59:55;;;;;;;0.80;0.80;;;14.80;64.50;;;;;;5052066;28;20183;-66
2023/11/28 02:02:20;;;;;;;0.80;0.80;;;14.80;64.50;;;;;;5052072;28;20221;-64
2023/11/28 02:04:47;;;;;;;0.80;0.80;;;14.80;64.40;;;;;;5051560;28;20221;-64
2023/11/28 02:07:14;;;;;;;0.65;0.65;;;14.80;64.50;;;;;;5050846;28;20183;-66
2023/11/28 02:09:39;;;;;;;0.70;0.70;;;14.80;64.50;;;;;;5051471;28;20179;-66
2023/11/28 02:12:06;;;;;;;0.80;0.80;;;14.80;64.40;;;;;;5051862;28;20282;-67
2023/11/28 02:14:31;;;;;;;0.70;0.70;;;14.80;64.50;;;;;;5050807;28;20183;-64
2023/11/28 02:16:57;;;;;;;0.90;0.90;;;14.80;64.40;;;;;;5051212;28;20202;-65
2023/11/28 02:19:22;;;;;;;0.70;0.70;;;14.70;64.40;;;;;;5051752;28;20179;-65
2023/11/28 02:21:48;;;;;;;0.80;0.80;;;14.80;64.40;;;;;;5052003;28;20175;-66
2023/11/28 02:24:14;;;;;;;0.90;0.90;;;14.70;64.30;;;;;;5050966;28;20175;-66
2023/11/28 02:26:40;;;;;;;1.15;1.13;;;14.70;64.30;;;;;;5050621;28;20631;-64
2023/11/28 02:29:05;;;;;;;0.98;0.98;;;14.70;64.30;;;;;;5051844;28;20217;-65
2023/11/28 02:31:31;;;;;;;0.82;0.82;;;14.70;64.30;;;;;;5050987;28;20175;-65
2023/11/28 02:33:58;;;;;;;0.82;0.82;;;14.70;64.40;;;;;;5051934;28;20638;-66
2023/11/28 02:36:23;;;;;;;0.75;0.75;;;14.70;64.40;;;;;;5051550;28;20187;-64
2023/11/28 02:38:49;;;;;;;1.00;1.00;;;14.70;64.50;;;;;;5051010;28;20190;-65
2023/11/28 02:41:14;;;;;;;0.80;0.70;;;14.60;64.30;;;;;;5051400;28;20179;-65
2023/11/28 02:43:40;;;;;;;0.77;0.77;;;14.60;64.40;;;;;;5051933;28;20175;-64
2023/11/28 02:46:06;;;;;;;0.82;0.80;;;14.60;64.40;;;;;;5050861;28;20210;-66
2023/11/28 02:48:31;;;;;;;0.90;0.90;;;14.60;64.30;;;;;;5051482;28;20220;-64
2023/11/28 02:50:57;;;;;;;0.70;0.70;;;14.60;64.40;;;;;;5050718;28;20226;-65
2023/11/28 02:53:22;;;;;;;0.70;0.70;;;14.60;64.40;;;;;;5053926;28;20178;-68
2023/11/28 02:55:48;;;;;;;0.90;0.90;;;14.60;64.40;;;;;;5055506;28;20186;-66
2023/11/28 02:58:13;;;;;;;0.80;0.80;;;14.60;64.40;;;;;;5055202;28;20210;-67
2023/11/28 03:00:39;;;;;;;0.60;0.60;;;14.60;64.50;;;;;;5054955;28;20171;-65
2023/11/28 03:03:04;;;;;;;0.90;0.90;;;14.60;64.50;;;;;;5055344;28;20181;-66
2023/11/28 03:05:31;;;;;;;1.00;1.00;;;14.60;64.40;;;;;;5055177;28;20202;-66
2023/11/28 03:07:56;;;;;;;0.93;0.93;;;14.60;64.40;;;;;;5054731;28;20287;-66
2023/11/28 03:10:25;;;;;;;1.17;0.90;;;14.60;64.40;;;;;;5054985;28;20262;-67
2023/11/28 03:12:50;;;;;;;0.90;0.90;;;14.60;64.50;;;;;;5055504;28;20194;-67
2023/11/28 03:15:16;;;;;;;1.15;1.08;;;14.50;64.40;;;;;;5053485;28;20654;-66
2023/11/28 03:17:41;;;;;;;1.08;1.08;;;14.50;64.40;;;;;;5055133;28;20576;-66
2023/11/28 03:20:08;;;;;;;1.10;1.05;;;14.50;64.40;;;;;;5054350;28;20182;-66
2023/11/28 03:22:35;;;;;;;0.80;0.80;;;14.50;64.40;;;;;;5054759;28;20237;-66
2023/11/28 03:25:07;;;;;;;1.08;1.08;;;14.50;64.40;;;;;;5054916;28;20199;-66
2023/11/28 03:27:33;;;;;;;0.90;0.90;;;14.50;64.40;;;;;;5054200;28;20645;-65
2023/11/28 03:29:59;;;;;;;1.15;1.08;;;14.50;64.30;;;;;;5055028;28;20657;-66
2023/11/28 03:32:24;;;;;;;0.90;0.90;;;14.50;65.20;;;;;;5054662;28;20201;-64
2023/11/28 03:34:50;;;;;;;1.23;1.13;;;14.50;64.40;;;;;;5054279;28;20229;-66
2023/11/28 03:37:15;;;;;;;1.10;1.00;;;14.50;64.40;;;;;;5054427;28;20225;-66
2023/11/28 03:39:44;;;;;;;1.35;1.10;;;14.50;64.30;;;;;;5054678;28;20536;-66
2023/11/28 03:42:09;;;;;;;1.05;1.05;;;14.40;64.20;;;;;;5054072;28;20261;-67
2023/11/28 03:44:35;;;;;;;1.10;1.10;;;14.50;64.40;;;;;;5054491;28;20421;-65
2023/11/28 03:47:01;;;;;;;0.98;0.98;;;14.40;64.20;;;;;;5054642;28;20179;-67
2023/11/28 03:49:26;;;;;;;1.13;1.13;;;14.40;64.30;;;;;;5053664;28;20175;-66
2023/11/28 03:51:52;;;;;;;1.08;0.98;;;14.50;64.40;;;;;;5054423;28;20215;-66
2023/11/28 03:54:19;;;;;;;0.90;0.90;;;14.50;64.40;;;;;;5054020;28;20171;-67
2023/11/28 03:56:45;;;;;;;1.35;1.25;;;14.40;64.20;;;;;;5053683;28;20335;-65
2023/11/28 03:59:10;;;;;;;0.90;0.90;;;14.40;64.30;;;;;;5054455;28;20179;-67
2023/11/28 04:01:36;;;;;;;1.48;1.38;;;14.40;64.30;;;;;;5054154;28;20168;-65
2023/11/28 04:04:01;;;;;;;1.00;1.00;;;14.40;64.30;;;;;;5052762;28;20167;-66
2023/11/28 04:06:27;;;;;;;0.98;0.98;;;14.40;64.20;;;;;;5053990;28;20186;-66
2023/11/28 04:08:53;;;;;;;1.30;1.20;;;14.40;64.20;;;;;;5054205;28;20274;-67
2023/11/28 04:11:19;;;;;;;1.00;0.95;;;14.40;64.20;;;;;;5053487;28;20178;-67
2023/11/28 04:13:44;;;;;;;1.10;1.10;;;14.30;64.10;;;;;;5054245;28;20748;-67
2023/11/28 04:16:18;;;;;;;0.98;0.98;;;14.40;64.20;;;;;;5054126;28;20548;-67
2023/11/28 04:18:45;;;;;;;0.90;0.90;;;14.40;64.20;;;;;;5053939;28;20210;-66
2023/11/28 04:21:15;;;;;;;0.90;0.90;;;14.40;64.20;;;;;;5053867;28;20190;-66
2023/11/28 04:23:41;;;;;;;0.80;0.80;;;14.30;64.10;;;;;;5053519;28;20182;-67
2023/11/28 04:26:07;;;;;;;1.20;1.10;;;14.30;64.00;;;;;;5054062;28;20179;-68
2023/11/28 04:28:33;;;;;;;0.88;0.88;;;14.30;64.10;;;;;;5053599;28;20171;-65
2023/11/28 04:30:58;;;;;;;0.80;0.80;;;14.30;64.10;;;;;;5052965;28;20170;-65
2023/11/28 04:33:24;;;;;;;0.95;0.93;;;14.30;64.10;;;;;;5053371;28;20179;-65
2023/11/28 04:35:49;;;;;;;0.90;0.90;;;14.30;64.10;;;;;;5053544;28;20163;-67
2023/11/28 04:38:15;;;;;;;0.70;0.70;;;14.20;64.00;;;;;;5052756;28;20219;-67
2023/11/28 04:40:40;;;;;;;0.95;0.95;;;14.30;64.10;;;;;;5053765;28;20324;-66
2023/11/28 04:43:06;;;;;;;1.20;1.10;;;14.30;64.00;;;;;;5053569;28;20778;-67
2023/11/28 04:45:31;;;;;;;1.08;1.08;;;14.20;64.10;;;;;;5052463;28;20213;-66
2023/11/28 04:47:58;;;;;;;1.00;1.00;;;14.20;64.00;;;;;;5053360;28;20253;-66
2023/11/28 04:50:24;;;;;;;1.05;0.95;;;14.20;64.10;;;;;;5052795;28;20211;-66
2023/11/28 04:52:50;;;;;;;1.00;1.00;;;14.20;64.00;;;;;;5052503;28;20603;-66
2023/11/28 04:55:15;;;;;;;0.93;0.80;;;14.20;64.00;;;;;;5051317;28;20174;-67
2023/11/28 04:57:41;;;;;;;0.90;0.90;;;14.20;64.10;;;;;;5053316;28;20221;-66
2023/11/28 05:00:08;;;;;;;1.10;1.00;;;14.20;64.10;;;;;;5052544;28;20178;-67
2023/11/28 05:02:34;;;;;;;1.50;0.90;;;14.20;64.10;;;;;;5051717;28;20245;-65
2023/11/28 05:05:00;;;;;;;1.05;0.95;;;14.20;64.10;;;;;;5053058;28;20183;-66
2023/11/28 05:07:25;;;;;;;0.90;0.90;;;14.20;64.10;;;;;;5052223;28;20642;-67
2023/11/28 05:09:51;;;;;;;1.00;0.90;;;14.20;64.10;;;;;;5053202;28;20641;-67
2023/11/28 05:12:17;;;;;;;0.80;0.80;;;14.20;64.00;;;;;;5052599;28;20641;-67
2023/11/28 05:14:42;;;;;;;0.77;0.77;;;14.10;64.00;;;;;;5052251;28;20269;-66
2023/11/28 05:17:08;;;;;;;0.80;0.80;;;14.10;64.10;;;;;;5051858;28;20294;-66
2023/11/28 05:19:34;;;;;;;0.80;0.80;;;14.10;64.10;;;;;;5051760;28;20187;-67
2023/11/28 05:21:59;;;;;;;0.80;0.80;;;14.10;64.00;;;;;;5053054;28;20167;-66
2023/11/28 05:24:25;;;;;;;0.65;0.65;;;14.10;64.10;;;;;;5052569;28;20179;-66
2023/11/28 05:26:50;;;;;;;1.05;0.88;;;14.10;64.10;;;;;;5052124;28;20540;-65
2023/11/28 05:29:16;;;;;;;1.48;0.82;;;14.10;64.10;;;;;;5052512;28;20167;-65
2023/11/28 05:31:41;;;;;;;0.95;0.93;;;14.10;64.10;;;;;;5052610;28;20584;-65
2023/11/28 05:34:07;;;;;;;0.98;0.88;;;14.10;64.10;;;;;;5051818;28;20711;-66
2023/11/28 05:36:32;;;;;;;1.10;1.00;;;14.10;64.10;;;;;;5052086;28;20236;-66
2023/11/28 05:38:59;;;;;;;0.70;0.70;;;14.10;64.10;;;;;;5052423;28;20309;-65
2023/11/28 05:41:25;;;;;;;0.93;0.93;;;14.10;64.10;;;;;;5051637;28;20186;-67
2023/11/28 05:43:50;;;;;;;0.82;0.82;;;14.10;64.10;;;;;;5052558;28;20171;-67
2023/11/28 05:46:16;;;;;;;0.88;0.88;;;14.00;64.10;;;;;;5052082;28;20193;-66
2023/11/28 05:48:41;;;;;;;0.80;0.80;;;14.00;64.00;;;;;;5051632;28;20171;-66
2023/11/28 05:51:08;;;;;;;1.23;1.13;;;14.00;64.00;;;;;;5052118;28;20300;-65
2023/11/28 05:53:35;;;;;;;0.80;0.80;;;14.00;64.00;;;;;;5052158;28;20179;-66
2023/11/28 05:56:01;;;;;;;0.88;0.88;;;14.00;64.00;;;;;;5051754;28;20175;-67
2023/11/28 05:58:27;;;;;;;1.00;1.00;;;14.00;64.00;;;;;;5051939;28;20264;-65
2023/11/28 06:00:52;;;;;;;0.85;0.85;;;14.00;64.00;;;;;;5052141;28;20561;-65
2023/11/28 06:03:18;;;;;;;1.05;1.02;;;14.00;64.00;;;;;;5051020;28;20715;-66
2023/11/28 06:05:43;;;;;;;0.82;0.82;;;14.00;64.10;;;;;;5052246;28;20179;-66
2023/11/28 06:08:09;;;;;;;0.82;0.82;;;14.00;64.10;;;;;;5051931;28;20182;-68
2023/11/28 06:10:34;;;;;;;1.00;0.85;;;14.00;64.00;;;;;;5051139;28;20225;-67
2023/11/28 06:13:00;;;;;;;0.95;0.90;;;14.00;63.90;;;;;;5052001;28;20690;-67
2023/11/28 06:15:26;;;;;;;0.63;0.63;;;14.10;64.60;;;;;;5051725;28;20259;-66
2023/11/28 06:17:51;;;;;;;0.70;0.70;;;14.10;63.70;;;;;;5051037;28;20214;-66
2023/11/28 06:20:17;;;;;;;0.80;0.75;;;14.30;64.00;;;;;;5051513;28;20175;-66
2023/11/28 06:22:43;;;;;;;0.77;0.77;;;14.40;63.70;;;;;;5051863;28;20185;-66
2023/11/28 06:25:09;;;;;;;0.88;0.80;;;14.60;63.50;;;;;;5051326;28;20175;-67
2023/11/28 06:27:34;;;;;;;0.60;0.60;;;14.80;63.40;;;;;;5053713;28;20625;-66
2023/11/28 06:30:00;;;;;;;0.52;0.52;;;15.00;62.90;;;;;;5055398;28;20197;-65
2023/11/28 06:32:26;;;;;;;0.60;0.60;;;15.20;62.40;;;;;;5055669;28;20174;-65
2023/11/28 06:34:51;;;;;;;0.47;0.47;;;15.50;61.80;;;;;;5055916;28;20171;-65
2023/11/28 06:37:17;;;;;;;0.82;0.63;;;15.70;61.10;;;;;;5055076;28;20214;-66
2023/11/28 06:39:45;;;;;;;0.95;0.50;;;15.90;60.50;;;;;;5055810;28;20167;-67
2023/11/28 06:42:11;;;;;;;0.50;0.43;;;16.10;60.10;;;;;;5055961;28;20179;-66
2023/11/28 06:44:36;;;;;;;0.55;0.55;;;16.20;59.90;;;;;;5054674;28;20198;-67
2023/11/28 06:47:02;;;;;;;0.57;0.57;;;16.30;59.70;;;;;;5055737;28;20179;-66
2023/11/28 06:49:28;;;;;;;0.52;0.52;;;16.30;59.60;;;;;;5055305;28;20174;-66
2023/11/28 06:51:53;;;;;;;0.77;0.65;;;16.30;59.50;;;;;;5054843;28;20309;-66
2023/11/28 06:54:19;;;;;;;0.77;0.77;;;16.30;59.60;;;;;;5055436;28;20171;-66
2023/11/28 06:56:45;;;;;;;0.57;0.57;;;16.30;59.60;;;;;;5055465;28;20262;-66
2023/11/28 06:59:11;;;;;;;0.73;0.73;;;16.30;59.60;;;;;;5054930;28;20261;-67
2023/11/28 07:01:39;;;;;;;0.73;0.60;;;16.30;59.60;;;;;;5055065;28;20168;-65
2023/11/28 07:04:04;;;;;;;0.60;0.60;;;16.30;59.60;;;;;;5055301;28;20201;-66
2023/11/28 07:06:30;;;;;;;0.55;0.55;;;16.30;59.60;;;;;;5054548;28;20179;-67
2023/11/28 07:08:56;;;;;;;0.50;0.50;;;16.30;59.60;;;;;;5055009;28;20176;-66
2023/11/28 07:11:21;;;;;;;0.47;0.47;;;16.30;59.60;;;;;;5055118;28;20189;-67
2023/11/28 07:13:47;;;;;;;0.63;0.63;;;16.30;59.70;;;;;;5053675;28;20175;-66
2023/11/28 07:16:14;;;;;;;0.50;0.50;;;16.20;59.60;;;;;;5054275;28;20274;-67
2023/11/28 07:18:40;;;;;;;0.63;0.63;;;16.10;59.90;;;;;;5055013;28;20207;-66
2023/11/28 07:21:05;;;;;;;0.40;0.40;;;16.20;59.90;;;;;;5054550;28;20174;-67
2023/11/28 07:23:33;;;;;;;0.95;0.60;;;16.30;59.70;;;;;;5054913;28;20179;-66
2023/11/28 07:25:58;;;;;;;1.27;0.50;;;16.40;59.60;;;;;;5055013;28;20187;-66
2023/11/28 07:28:24;;;;;;;0.60;0.60;;;16.50;59.50;;;;;;5053508;28;20182;-65
2023/11/28 07:30:50;;;;;;;0.82;0.80;;;16.60;59.30;;;;;;5054883;28;20182;-66
2023/11/28 07:33:16;;;;;;;0.65;0.60;;;16.80;59.80;;;;;;5054109;28;20525;-66
2023/11/28 07:35:41;;;;;;;1.58;0.63;;;16.90;58.90;;;;;;5054776;28;20317;-66
2023/11/28 07:38:07;;;;;;;2.97;0.95;;;17.10;58.70;;;;;;5052060;28;20685;-66
2023/11/28 07:40:33;;;;;;;1.88;0.80;;;17.20;58.60;;;;;;5053130;28;20178;-67
2023/11/28 07:43:00;;;;;;;3.70;0.77;;;17.20;58.50;;;;;;5054410;28;20179;-67
2023/11/28 07:45:26;;;;;;;2.70;0.77;;;17.30;58.40;;;;;;5053782;28;20178;-66
2023/11/28 07:47:52;;;;;;;1.90;0.60;;;17.40;58.40;;;;;;5053516;28;20179;-65
2023/11/28 07:50:20;;;;;;;4.28;1.00;;;17.40;58.30;;;;;;5054108;28;20217;-67
2023/11/28 07:52:47;;;;;;;1.80;0.98;;;17.50;58.20;;;;;;5054200;28;20186;-67
2023/11/28 07:55:13;;;;;;;1.90;0.85;;;17.40;58.30;;;;;;5053781;28;20194;-67
2023/11/28 07:57:38;;;;;;;1.95;0.98;;;17.50;58.40;;;;;;5054148;28;20211;-67
2023/11/28 08:00:07;;;;;;;3.03;0.70;;;17.50;58.50;;;;;;5054229;28;20175;-65
2023/11/28 08:02:33;;;;;;;3.03;0.77;;;17.50;58.50;;;;;;5053155;28;20197;-65
2023/11/28 08:04:59;;;;;;;1.02;0.50;;;17.50;58.50;;;;;;5054423;28;20182;-64
2023/11/28 08:07:24;;;;;;;2.30;0.82;;;17.50;58.40;;;;;;5053922;28;20553;-65
2023/11/28 08:09:53;;;;;;;3.08;0.63;;;17.50;58.50;;;;;;5053856;28;20292;-66
2023/11/28 08:12:18;;;;;;;1.52;0.90;;;17.50;58.50;;;;;;5053872;28;20175;-65
2023/11/28 08:14:44;;;;;;;3.03;1.75;;;17.40;57.80;;;;;;5053950;28;20181;-65
2023/11/28 08:17:09;;;;;;;2.05;0.70;;;17.40;58.00;;;;;;5053416;28;20206;-65
2023/11/28 08:19:35;;;;;;;1.17;0.80;;;17.30;58.10;;;;;;5053825;28;20179;-65
2023/11/28 08:22:00;;;;;;;1.27;0.80;;;17.30;58.20;;;;;;5054118;28;20171;-65
2023/11/28 08:24:26;;;;;;;1.73;0.93;;;17.30;58.30;;;;;;5053006;28;20174;-65
2023/11/28 08:26:51;;;;;;;2.75;0.80;;;17.30;58.30;;;;;;5053971;28;20171;-65
2023/11/28 08:29:17;;;;;;;1.10;0.70;;;17.30;58.30;;;;;;5053506;28;20175;-64
2023/11/28 08:31:42;;;;;;;1.80;0.65;;;17.30;58.40;;;;;;5053257;28;20167;-65
2023/11/28 08:34:09;;;;;;;0.93;0.65;;;17.20;58.50;;;;;;5053641;28;20659;-66
2023/11/28 08:36:34;;;;;;;1.95;0.77;;;17.20;58.40;;;;;;5052634;28;20633;-65
2023/11/28 08:39:00;;;;;;;1.00;0.90;;;17.20;58.50;;;;;;5053565;28;20178;-66
2023/11/28 08:41:26;;;;;;;0.85;0.73;;;17.20;58.50;;;;;;5053325;28;20546;-65
2023/11/28 08:43:51;;;;;;;0.98;0.70;;;17.20;58.60;;;;;;5052746;28;20510;-65
2023/11/28 08:46:18;;;;;;;1.75;0.75;;;17.30;58.40;;;;;;5053406;28;20725;-65
2023/11/28 08:48:43;;;;;;;2.22;0.80;;;17.30;58.40;;;;;;5053659;28;20175;-65
2023/11/28 08:51:09;;;;;;;1.20;0.63;;;17.40;58.50;;;;;;5052256;28;20226;-64
2023/11/28 08:53:34;;;;;;;0.63;0.63;;;17.40;58.50;;;;;;5053221;28;20268;-65
2023/11/28 08:56:00;;;;;;;1.80;0.60;;;17.40;58.50;;;;;;5053253;28;20167;-65
2023/11/28 08:58:26;;;;;;;1.02;0.57;;;17.40;58.30;;;;;;5052079;28;20203;-63
2023/11/28 09:00:53;;;;;;;0.65;0.57;;;17.40;58.30;;;;;;5053318;28;20211;-64
2023/11/28 09:03:22;;;;;;;1.77;0.63;;;17.40;58.40;;;;;;5052999;28;20179;-64
2023/11/28 09:05:47;;;;;;;0.88;0.65;;;17.40;58.40;;;;;;5052450;28;20178;-63
2023/11/28 09:08:13;;;;;;;0.63;0.50;;;17.30;58.40;;;;;;5053174;28;20183;-67
2023/11/28 09:10:38;;;;;;;0.40;0.40;;;17.20;59.00;;;;;;5052954;28;20193;-65
2023/11/28 09:13:04;;;;;;;0.60;0.60;;;17.20;59.20;;;;;;5052171;28;20259;-65
2023/11/28 09:15:29;;;;;;;1.35;0.70;;;17.20;59.00;;;;;;5052805;28;20199;-65
2023/11/28 09:17:55;;;;;;;0.93;0.60;;;17.20;59.20;;;;;;5052896;28;20225;-65
2023/11/28 09:20:20;;;;;;;0.50;0.50;;;17.10;59.20;;;;;;5051906;28;20167;-66
2023/11/28 09:22:47;;;;;;;1.17;0.93;;;17.10;59.80;;;;;;5052829;28;20181;-64
2023/11/28 09:25:16;;;;;;;0.98;0.65;;;17.10;59.40;;;;;;5052836;28;20208;-65
2023/11/28 09:27:41;;;;;;;0.70;0.63;;;17.00;59.40;;;;;;5051986;28;20175;-64
2023/11/28 09:30:07;;;;;;;1.08;0.80;;;16.90;59.70;;;;;;5052798;28;20183;-65
2023/11/28 09:32:33;;;;;;;1.35;0.50;;;16.80;59.80;;;;;;5052335;28;20179;-64
2023/11/28 09:34:58;;;;;;;1.00;0.70;;;16.70;60.00;;;;;;5051858;28;20171;-65
2023/11/28 09:37:24;;;;;;;0.90;0.60;;;16.70;60.20;;;;;;5052114;28;20253;-65
2023/11/28 09:39:50;;;;;;;1.08;0.68;;;16.70;60.30;;;;;;5051774;28;20217;-64
2023/11/28 09:42:15;;;;;;;0.70;0.50;;;16.70;60.40;;;;;;5052007;28;20175;-64
2023/11/28 09:44:42;;;;;;;0.80;0.68;;;16.60;60.50;;;;;;5051133;28;20182;-64
2023/11/28 09:47:10;;;;;;;0.60;0.60;;;16.60;60.60;;;;;;5051885;28;20928;-64
2023/11/28 09:49:42;;;;;;;0.70;0.60;;;16.50;60.70;;;;;;5052146;28;20182;-65
2023/11/28 09:52:08;;;;;;;1.55;0.65;;;16.50;61.00;;;;;;5052226;28;20233;-65
2023/11/28 09:54:37;;;;;;;0.90;0.55;;;16.40;61.10;;;;;;5051313;28;20187;-65
2023/11/28 09:57:02;;;;;;;0.70;0.70;;;16.40;61.20;;;;;;5052417;28;20203;-65
2023/11/28 09:59:30;;;;;;;0.60;0.60;;;16.30;61.30;;;;;;5034354;28;20178;-65
2023/11/28 10:01:55;;;;;;;1.00;0.90;;;16.30;61.40;;;;;;5050375;28;20181;-70
2023/11/28 10:04:22;;;;;;;0.98;0.75;;;16.20;61.50;;;;;;5051810;28;20261;-68
2023/11/28 10:06:49;;;;;;;1.42;0.57;;;16.20;62.40;;;;;;5052032;28;20263;-65
2023/11/28 10:09:16;;;;;;;1.33;1.00;;;16.20;61.60;;;;;;5050793;28;20587;-69
2023/11/28 10:11:42;;;;;;;3.20;0.63;;;16.30;61.60;;;;;;5051114;28;20182;-67
2023/11/28 10:14:08;;;;;;;6.45;0.68;;;16.20;61.60;;;;;;5052071;28;20543;-66
2023/11/28 10:16:54;;;;;;;1.92;0.73;;;16.20;61.60;;;;;;5051162;28;20175;-64
2023/11/28 10:19:19;;;;;;;3.45;0.90;;;16.20;62.00;;;;;;5051406;28;20571;-66
2023/11/28 10:21:48;;;;;;;4.78;0.90;;;16.10;61.90;;;;;;5051934;28;20167;-66
2023/11/28 10:24:14;;;;;;;1.17;0.60;;;16.10;61.90;;;;;;5051277;28;20194;-66
2023/11/28 10:26:39;;;;;;;1.20;0.70;;;16.10;62.00;;;;;;5050879;28;20568;-66
2023/11/28 10:29:06;;;;;;;3.92;0.60;;;16.10;62.00;;;;;;5051133;28;20178;-65
2023/11/28 10:31:38;;;;;;;4.45;0.90;;;16.10;61.90;;;;;;5051505;28;20198;-66
2023/11/28 10:34:08;;;;;;;4.80;0.85;;;16.10;61.70;;;;;;5051420;28;20181;-67
2023/11/28 10:36:41;;;;;;;2.88;0.90;;;16.10;61.80;;;;;;5050848;28;20262;-65
2023/11/28 10:39:10;;;;;;;3.05;1.08;;;16.10;61.90;;;;;;5051965;28;20241;-67
2023/11/28 10:41:36;;;;;;;1.30;0.85;;;16.10;61.30;;;;;;5051522;28;20181;-68
2023/11/28 10:44:02;;;;;;;0.70;0.70;;;16.10;61.50;;;;;;5050632;28;20212;-67
2023/11/28 10:46:28;;;;;;;0.70;0.70;;;16.10;61.60;;;;;;5050989;28;20175;-67
2023/11/28 10:48:55;;;;;;;2.70;0.75;;;16.10;61.70;;;;;;5048865;28;20181;-68
2023/11/28 10:51:22;;;;;;;1.42;0.88;;;16.10;61.70;;;;;;5050646;28;20233;-67
2023/11/28 10:53:47;;;;;;;1.70;0.88;;;16.10;61.70;;;;;;5034274;28;20178;-68
2023/11/28 10:56:14;;;;;;;2.22;0.60;;;16.10;61.60;;;;;;5050548;28;20169;-67
2023/11/28 10:58:40;;;;;;;2.30;0.60;;;16.10;61.70;;;;;;5049543;28;20215;-69
2023/11/28 11:01:06;;;;;;;1.88;0.80;;;16.20;61.70;;;;;;5051545;28;20194;-70
2023/11/28 11:03:32;;;;;;;0.52;0.50;;;16.20;61.50;;;;;;5033277;28;20211;-68
2023/11/28 11:05:57;;;;;;;0.70;0.50;;;16.10;61.70;;;;;;5033019;28;20172;-71
2023/11/28 11:08:23;;;;;;;0.90;0.60;;;16.00;61.90;;;;;;5050130;28;20175;-69
2023/11/28 11:10:48;;;;;;;1.33;0.65;;;16.00;62.00;;;;;;5049402;28;20695;-71
2023/11/28 11:13:36;;;;;;;2.05;0.77;;;16.00;62.10;;;;;;5051913;28;20182;-71
2023/11/28 11:16:16;;;;;;;0.63;0.63;;;15.90;62.10;;;;;;5053958;28;20210;-67
2023/11/28 11:18:46;;;;;;;1.48;0.70;;;15.90;61.80;;;;;;5053518;28;20214;-70
2023/11/28 11:21:18;;;;;;;3.17;1.08;;;15.90;62.10;;;;;;5053661;28;20211;-72
2023/11/28 11:23:46;;;;;;;2.63;0.80;;;16.00;62.10;;;;;;5055017;28;20175;-69
2023/11/28 11:26:12;;;;;;;1.95;0.63;;;16.00;61.90;;;;;;5052719;28;20179;-72
2023/11/28 11:28:37;;;;;;;3.05;0.90;;;16.00;61.90;;;;;;5054753;28;20309;-68
2023/11/28 11:31:10;;;;;;;3.72;1.02;;;16.00;61.70;;;;;;5053669;28;20191;-69
2023/11/28 11:33:36;;;;;;;3.05;0.80;;;16.00;62.00;;;;;;5053879;28;20195;-76
2023/11/28 11:36:13;;;;;;;1.42;0.90;;;16.00;61.90;;;;;;5055243;28;20227;-77
2023/11/28 11:38:39;;;;;;;1.83;0.80;;;16.00;61.70;;;;;;5054881;28;20269;-74
2023/11/28 11:41:06;;;;;;;1.17;0.80;;;16.10;61.70;;;;;;5054420;28;20618;-74
2023/11/28 11:43:36;;;;;;;1.30;0.77;;;16.10;61.70;;;;;;5054460;28;20241;-72
2023/11/28 11:46:11;;;;;;;0.50;0.50;;;16.10;61.80;;;;;;5054731;28;20179;-75
2023/11/28 11:48:37;;;;;;;2.55;0.70;;;16.20;61.80;;;;;;5053541;28;20645;-69
2023/11/28 11:51:03;;;;;;;2.08;0.73;;;16.10;61.80;;;;;;5054126;28;20229;-79
2023/11/28 11:53:30;;;;;;;1.88;0.75;;;16.20;61.90;;;;;;5053522;28;20634;-75
2023/11/28 11:55:59;;;;;;;2.53;1.08;;;16.20;61.80;;;;;;5054618;28;20179;-69
2023/11/28 11:58:24;;;;;;;1.98;1.00;;;16.30;62.00;;;;;;5054224;28;20249;-67
2023/11/28 12:00:50;;;;;;;3.60;1.10;;;16.20;62.00;;;;;;5052619;28;20195;-66
2023/11/28 12:03:16;;;;;;;5.90;1.25;;;16.20;62.30;;;;;;5052892;28;20175;-68
2023/11/28 12:05:52;;;;;;;3.00;0.80;;;16.10;62.40;;;;;;5054145;28;20540;-67
2023/11/28 12:08:19;;;;;;;2.05;1.40;;;16.10;62.70;;;;;;5053331;28;20183;-69
2023/11/28 12:10:44;;;;;;;3.03;1.20;;;16.00;62.70;;;;;;5054017;28;20666;-70
2023/11/28 12:13:15;;;;;;;1.90;0.90;;;16.00;62.80;;;;;;5053855;28;20183;-68
2023/11/28 12:15:41;;;;;;;2.25;1.20;;;16.00;62.80;;;;;;5050410;28;20187;-68
2023/11/28 12:18:13;;;;;;;2.75;1.05;;;16.00;62.90;;;;;;5053368;28;20218;-67
2023/11/28 12:20:41;;;;;;;2.42;1.05;;;16.00;62.90;;;;;;5053984;28;20175;-66
2023/11/28 12:23:08;;;;;;;1.45;1.08;;;16.00;62.70;;;;;;5053392;28;20265;-69
2023/11/28 12:25:34;;;;;;;4.28;1.08;;;15.90;62.80;;;;;;5052617;28;20183;-68
2023/11/28 12:28:00;;;;;;;2.63;1.23;;;15.90;62.70;;;;;;5053909;28;20179;-68
2023/11/28 12:30:25;;;;;;;9.02;1.73;;;15.90;62.90;;;;;;5052894;28;20181;-67
2023/11/28 12:32:51;;;;;;;3.90;1.13;;;15.90;63.10;;;;;;5053494;28;20185;-67
2023/11/28 12:35:17;;;;;;;2.92;1.17;;;15.90;63.80;;;;;;5052065;28;20178;-67
2023/11/28 12:37:46;;;;;;;4.97;1.42;;;15.90;63.00;;;;;;5052874;28;20225;-67
2023/11/28 12:40:12;;;;;;;4.32;0.98;;;15.90;63.10;;;;;;5052438;28;20263;-67
2023/11/28 12:42:45;;;;;;;2.72;1.30;;;15.90;63.10;;;;;;5053009;28;20629;-66